Time;durP1;ratioP1;P1;durP2;ratioP2;P2;SDS_P1;SDS_P2;PMS_P1;PMS_P2;Temp;Humidity;BMP_temperature;BMP_pressure;BME280_temperature;BME280_humidity;BME280_pressure;Samples;Min_cycle;Max_cycle;Signal;HPM_P1;HPM_P2
2022/09/06 00:01:46;;;;;;;3.22;1.92;;;;;;;15.82;49.48;101039.39;2092140;85;29630;-66
2022/09/06 00:04:48;;;;;;;6.72;2.27;;;;;;;15.79;49.53;101046.75;2091747;85;31410;-66
2022/09/06 00:07:50;;;;;;;5.45;2.00;;;;;;;15.64;49.68;101014.75;2091335;85;34204;-66
2022/09/06 00:10:58;;;;;;;4.92;2.00;;;;;;;15.75;49.49;101041.13;2091637;85;29695;-66
2022/09/06 00:13:59;;;;;;;2.50;1.90;;;;;;;15.72;49.47;101042.66;2091541;85;27707;-67
2022/09/06 00:17:01;;;;;;;3.17;1.77;;;;;;;15.68;49.55;101033.48;2091317;85;28689;-67
2022/09/06 00:20:07;;;;;;;3.12;2.00;;;;;;;15.65;49.55;101033.16;2091326;85;31611;-66
2022/09/06 00:23:08;;;;;;;5.33;2.40;;;;;;;15.59;49.61;101022.75;2091659;85;33061;-65
2022/09/06 00:26:10;;;;;;;4.47;2.55;;;;;;;15.53;49.63;101025.34;2091647;85;30129;-66
2022/09/06 00:29:12;;;;;;;6.47;2.30;;;;;;;15.46;49.67;101027.53;2090660;84;27671;-66
2022/09/06 00:32:14;;;;;;;6.00;2.58;;;;;;;15.40;49.72;101025.64;2091201;85;29901;-66
2022/09/06 00:35:17;;;;;;;4.42;1.98;;;;;;;15.30;49.81;101016.73;2091266;85;31543;-67
2022/09/06 00:38:19;;;;;;;4.10;1.90;;;;;;;15.24;49.91;101021.62;2091628;85;33794;-66
2022/09/06 00:41:20;;;;;;;3.55;2.10;;;;;;;15.14;50.02;101021.28;2091704;85;29332;-66
2022/09/06 00:44:21;;;;;;;3.55;2.00;;;;;;;15.07;50.08;101021.23;2091306;85;27721;-67
2022/09/06 00:47:23;;;;;;;4.08;2.20;;;;;;;15.00;50.22;101025.64;2091803;85;29024;-67
2022/09/06 00:50:24;;;;;;;6.05;1.95;;;;;;;14.94;50.26;101022.42;2091246;85;31073;-67
2022/09/06 00:53:26;;;;;;;5.47;2.12;;;;;;;14.89;50.35;101017.30;2091543;85;33336;-67
2022/09/06 00:56:30;;;;;;;3.20;2.00;;;;;;;14.82;50.55;101024.83;2091935;85;29305;-67
2022/09/06 00:59:35;;;;;;;4.60;2.15;;;;;;;14.75;50.71;101022.10;2073370;85;27709;-67
2022/09/06 01:02:36;;;;;;;;;;;;;;;14.69;50.86;101024.67;2059646;86;28623;-67
2022/09/06 01:06:20;;;;;;;2.83;1.90;;;;;;;14.63;50.97;101024.96;2056945;86;31424;-66
2022/09/06 01:09:26;;;;;;;3.98;1.80;;;;;;;14.57;51.10;101021.24;2057279;86;32982;-67
2022/09/06 01:12:48;;;;;;;6.10;1.57;;;;;;;14.49;51.35;101021.66;2056328;86;29355;-67
2022/09/06 01:16:04;;;;;;;4.75;2.45;;;;;;;14.44;51.54;101025.97;2057526;86;27622;-67
2022/09/06 01:19:45;;;;;;;5.62;2.40;;;;;;;14.37;51.62;101014.25;2057113;86;29592;-67
2022/09/06 01:23:24;;;;;;;6.00;2.37;;;;;;;14.31;51.70;101020.84;2057331;86;31053;-67
2022/09/06 01:26:46;;;;;;;3.42;2.12;;;;;;;14.25;51.97;101016.66;2057196;86;33376;-66
2022/09/06 01:29:51;;;;;;;3.42;2.02;;;;;;;14.19;52.10;101015.63;2081136;85;30004;-67
2022/09/06 01:33:17;;;;;;;5.15;2.00;;;;;;;14.18;52.16;101015.73;2092624;84;27679;-68
2022/09/06 01:36:23;;;;;;;2.42;2.22;;;;;;;14.16;52.34;101017.63;2056482;85;29354;-68
2022/09/06 01:39:28;;;;;;;6.20;2.08;;;;;;;14.14;52.35;101019.07;2007605;88;31038;-68
2022/09/06 01:42:31;;;;;;;7.90;3.50;;;;;;;14.13;52.49;101020.02;2021789;88;33980;-68
2022/09/06 01:45:50;;;;;;;6.70;2.58;;;;;;;14.15;52.46;101023.48;2048655;86;29323;-68
2022/09/06 01:49:12;;;;;;;5.33;2.65;;;;;;;14.16;52.51;101021.67;2023690;86;27733;-65
2022/09/06 01:52:30;;;;;;;2.92;1.90;;;;;;;14.17;52.57;101020.72;2023883;88;28690;-65
2022/09/06 01:55:40;;;;;;;4.80;2.17;;;;;;;14.19;52.63;101022.37;2023397;87;31435;-66
2022/09/06 01:59:02;;;;;;;3.17;2.20;;;;;;;14.19;52.59;101021.02;2023564;88;33372;-66
2022/09/06 02:02:24;;;;;;;6.05;2.20;;;;;;;14.19;52.66;101017.47;2006899;88;29377;-67
2022/09/06 02:05:49;;;;;;;5.03;2.25;;;;;;;14.19;52.70;101028.25;2039812;87;27643;-66
2022/09/06 02:09:02;;;;;;;5.10;1.98;;;;;;;14.17;52.77;101021.58;2063181;86;28855;-67
2022/09/06 02:12:05;;;;;;;3.92;2.40;;;;;;;14.18;52.78;101024.67;2059014;82;32190;-71
2022/09/06 02:15:14;;;;;;;3.50;2.37;;;;;;;14.18;52.84;101022.47;2030311;87;34424;-70
2022/09/06 02:18:32;;;;;;;6.25;2.75;;;;;;;14.17;52.87;101016.68;2030331;86;30124;-70
2022/09/06 02:21:37;;;;;;;5.20;2.33;;;;;;;14.15;52.94;101015.89;2031003;86;27931;-70
2022/09/06 02:24:39;;;;;;;3.33;2.02;;;;;;;14.13;53.02;101014.63;2030823;87;28573;-70
2022/09/06 02:27:40;;;;;;;4.67;2.45;;;;;;;14.09;53.03;101010.35;2030669;87;31186;-69
2022/09/06 02:30:47;;;;;;;5.05;2.20;;;;;;;14.04;53.08;101007.02;2008862;87;33338;-70
2022/09/06 02:33:50;;;;;;;4.28;2.33;;;;;;;13.98;53.12;101009.56;2030585;87;29375;-72
2022/09/06 02:36:51;;;;;;;7.12;2.90;;;;;;;13.94;53.36;101007.98;2030722;87;27770;-71
2022/09/06 02:39:54;;;;;;;6.70;3.05;;;;;;;13.83;53.37;101004.03;2059331;86;29063;-72
2022/09/06 02:42:56;;;;;;;6.37;2.75;;;;;;;13.77;53.56;100999.45;2059994;86;31063;-71
2022/09/06 02:45:57;;;;;;;3.87;2.52;;;;;;;13.70;53.57;100999.35;2059898;86;33348;-71
2022/09/06 02:48:58;;;;;;;3.30;2.22;;;;;;;13.62;53.71;101011.41;2059839;86;29504;-72
2022/09/06 02:52:01;;;;;;;5.45;2.80;;;;;;;13.56;53.89;101009.02;2059855;86;27735;-71
2022/09/06 02:55:05;;;;;;;6.20;2.58;;;;;;;13.49;53.92;101007.57;2059564;86;29873;-71
2022/09/06 02:58:09;;;;;;;5.87;2.33;;;;;;;13.44;54.31;101007.81;2059646;86;31855;-71
2022/09/06 03:01:11;;;;;;;4.85;2.05;;;;;;;13.36;54.40;101009.50;2059786;86;33019;-71
2022/09/06 03:04:13;;;;;;;7.30;2.80;;;;;;;13.28;54.38;101000.96;2059677;86;44760;-71
2022/09/06 03:07:15;;;;;;;5.97;2.75;;;;;;;13.21;54.46;100999.05;2059726;86;27711;-71
2022/09/06 03:10:18;;;;;;;6.28;3.33;;;;;;;13.15;54.76;100996.66;2060045;86;28683;-71
2022/09/06 03:13:20;;;;;;;5.95;2.37;;;;;;;13.09;55.02;100998.28;2065074;86;32093;-72
2022/09/06 03:16:22;;;;;;;6.55;2.27;;;;;;;13.02;55.04;100993.68;2070536;86;34203;-72
2022/09/06 03:19:23;;;;;;;5.30;2.33;;;;;;;12.95;55.14;100985.53;2070499;86;30650;-70
2022/09/06 03:22:24;;;;;;;8.23;3.02;;;;;;;12.90;55.55;100996.97;2070910;86;27833;-70
2022/09/06 03:25:26;;;;;;;7.55;2.72;;;;;;;12.82;55.44;100991.11;2073442;85;28512;-70
2022/09/06 03:28:29;;;;;;;4.67;2.65;;;;;;;12.77;55.70;100996.69;2055462;85;31074;-71
2022/09/06 03:31:31;;;;;;;4.65;2.25;;;;;;;12.71;55.91;100999.69;2039827;85;33027;-69
2022/09/06 03:34:32;;;;;;;5.17;2.70;;;;;;;12.64;56.30;100997.77;2039383;87;29941;-70
2022/09/06 03:37:34;;;;;;;3.92;2.70;;;;;;;12.57;56.21;100997.18;2039587;87;27604;-71
2022/09/06 03:40:35;;;;;;;3.10;2.47;;;;;;;12.51;56.53;100999.25;2037112;87;28664;-70
2022/09/06 03:43:36;;;;;;;5.33;2.95;;;;;;;12.46;56.51;100999.02;2036675;87;30472;-71
2022/09/06 03:46:39;;;;;;;3.62;2.45;;;;;;;12.44;56.77;100994.64;2038642;87;28073;-70
2022/09/06 03:49:41;;;;;;;4.67;2.30;;;;;;;12.44;57.03;100986.58;2036453;87;30360;-71
2022/09/06 03:52:42;;;;;;;5.30;2.67;;;;;;;12.45;57.14;100991.01;2039752;87;27537;-71
2022/09/06 03:55:45;;;;;;;5.20;2.75;;;;;;;12.43;57.48;100992.44;2039347;87;28453;-70
2022/09/06 03:58:47;;;;;;;5.25;2.42;;;;;;;12.45;57.36;100993.70;2057065;86;31108;-72
2022/09/06 04:01:48;;;;;;;4.10;2.40;;;;;;;12.49;57.46;100993.11;2073144;85;33338;-71
2022/09/06 04:04:49;;;;;;;7.10;2.67;;;;;;;12.53;57.57;100994.68;2073427;85;29083;-71
2022/09/06 04:07:50;;;;;;;4.85;2.65;;;;;;;12.56;57.57;100994.09;2070415;86;27776;-72
2022/09/06 04:10:57;;;;;;;7.97;3.08;;;;;;;12.59;57.64;100993.06;2070642;86;29854;-72
2022/09/06 04:13:58;;;;;;;8.95;2.70;;;;;;;12.61;57.89;100989.84;2062451;86;31498;-72
2022/09/06 04:17:00;;;;;;;5.47;2.92;;;;;;;12.64;58.03;100983.43;2057955;86;33142;-71
2022/09/06 04:20:03;;;;;;;7.95;2.75;;;;;;;12.65;58.04;100978.45;2058283;86;30603;-71
2022/09/06 04:23:05;;;;;;;4.22;2.40;;;;;;;12.58;58.01;100960.41;2038397;87;27686;-73
2022/09/06 04:26:07;;;;;;;8.28;2.72;;;;;;;12.69;57.92;100976.89;2063714;86;29923;-72
2022/09/06 04:29:08;;;;;;;4.28;2.35;;;;;;;12.71;57.69;100972.31;2032641;86;32166;-72
2022/09/06 04:32:09;;;;;;;10.82;2.87;;;;;;;12.76;57.65;100975.66;2029779;87;32975;-72
2022/09/06 04:35:12;;;;;;;7.33;2.45;;;;;;;12.82;57.55;100975.83;2030024;87;29154;-72
2022/09/06 04:38:16;;;;;;;9.75;4.17;;;;;;;12.88;57.48;100977.34;2029692;87;28236;-71
2022/09/06 04:41:18;;;;;;;7.30;2.52;;;;;;;12.94;57.41;100982.44;2029891;87;28262;-71
2022/09/06 04:44:19;;;;;;;3.92;2.30;;;;;;;13.00;57.34;100992.02;2029798;87;31497;-71
2022/09/06 04:47:20;;;;;;;5.10;2.60;;;;;;;13.05;57.29;100982.78;2029866;87;33330;-72
2022/09/06 04:50:21;;;;;;;6.40;2.42;;;;;;;13.11;57.27;100974.02;2029756;87;30723;-71
2022/09/06 04:53:22;;;;;;;5.03;2.45;;;;;;;13.16;57.21;100962.08;2030007;87;28360;-71
2022/09/06 04:56:25;;;;;;;6.33;2.40;;;;;;;13.19;57.13;100962.38;2030418;86;29040;-72
2022/09/06 04:59:26;;;;;;;8.60;2.70;;;;;;;13.19;57.07;100968.66;2020717;86;31493;-70
2022/09/06 05:02:28;;;;;;;5.25;2.92;;;;;;;13.21;57.02;100965.42;2018306;87;33606;-70
2022/09/06 05:05:29;;;;;;;5.87;2.85;;;;;;;13.24;57.02;100967.07;2024149;88;29098;-69
2022/09/06 05:08:30;;;;;;;9.60;2.35;;;;;;;13.29;57.03;100984.33;2024269;88;27729;-71
2022/09/06 05:11:32;;;;;;;4.25;2.30;;;;;;;13.35;57.05;100982.69;2024171;88;28710;-69
2022/09/06 05:14:34;;;;;;;5.83;2.30;;;;;;;13.40;56.98;100995.91;2039755;86;31032;-72
2022/09/06 05:17:35;;;;;;;10.10;2.80;;;;;;;13.42;56.97;100994.04;2048173;86;33026;-71
2022/09/06 05:20:36;;;;;;;7.87;2.37;;;;;;;13.44;56.96;100998.88;2048341;86;29334;-68
2022/09/06 05:23:38;;;;;;;5.20;2.87;;;;;;;13.46;57.01;100999.19;2048144;86;27777;-68
2022/09/06 05:26:39;;;;;;;10.10;2.77;;;;;;;13.47;56.94;101000.93;2048444;86;29877;-69
2022/09/06 05:29:40;;;;;;;6.25;2.65;;;;;;;13.52;56.99;100998.00;2048571;86;32006;-71
2022/09/06 05:32:42;;;;;;;8.40;3.08;;;;;;;13.58;56.87;100996.81;2048215;86;33713;-71
2022/09/06 05:35:44;;;;;;;5.58;2.22;;;;;;;13.63;56.78;101000.15;2047978;86;30641;-69
2022/09/06 05:38:45;;;;;;;7.05;2.45;;;;;;;13.66;56.71;101000.85;2048294;86;27740;-71
2022/09/06 05:41:46;;;;;;;9.55;2.40;;;;;;;13.71;56.66;101007.83;2048201;86;29044;-71
2022/09/06 05:44:48;;;;;;;11.03;3.10;;;;;;;13.75;56.64;101010.77;2048017;86;31093;-71
2022/09/06 05:47:49;;;;;;;5.03;2.75;;;;;;;13.78;56.49;101018.20;2048252;86;33422;-70
2022/09/06 05:51:04;;;;;;;12.75;3.47;;;;;;;13.82;56.55;101007.67;2048407;86;29696;-70
2022/09/06 05:54:10;;;;;;;6.03;2.67;;;;;;;13.93;56.65;101004.43;2048354;84;28214;-70
2022/09/06 05:57:09;;;;;;;8.95;3.00;;;;;;;14.08;56.54;100997.83;2047753;86;29926;-69
2022/09/06 06:00:13;;;;;;;8.60;2.45;;;;;;;14.24;56.49;100996.52;2047891;86;32442;-70
2022/09/06 06:03:14;;;;;;;4.08;2.45;;;;;;;14.40;56.20;100995.22;2048385;86;32957;-70
2022/09/06 06:06:15;;;;;;;5.75;2.87;;;;;;;14.54;56.05;100995.33;2047928;86;29384;-69
2022/09/06 06:09:17;;;;;;;7.65;2.90;;;;;;;14.75;56.09;101001.88;2048064;86;27639;-70
2022/09/06 06:12:19;;;;;;;10.75;2.72;;;;;;;14.95;55.73;100999.89;2048258;86;29276;-70
2022/09/06 06:15:21;;;;;;;4.83;2.35;;;;;;;15.11;55.58;101003.45;2052466;86;31409;-70
2022/09/06 06:18:22;;;;;;;12.05;3.35;;;;;;;15.28;55.02;100997.55;2057206;86;33733;-70
2022/09/06 06:21:30;;;;;;;7.65;3.10;;;;;;;15.43;54.77;100993.95;2053560;86;30520;-70
2022/09/06 06:24:32;;;;;;;7.78;2.62;;;;;;;15.61;54.76;100997.88;2056552;86;27759;-69
2022/09/06 06:27:35;;;;;;;6.30;2.83;;;;;;;15.89;54.10;101001.63;2056635;86;29338;-71
2022/09/06 06:30:38;;;;;;;6.37;2.30;;;;;;;15.93;53.54;100977.03;2056769;86;31919;-72
2022/09/06 06:33:40;;;;;;;4.65;2.37;;;;;;;15.93;53.54;100977.03;2056488;86;34325;-71
2022/09/06 06:36:43;;;;;;;10.40;2.70;;;;;;;16.20;53.07;101002.45;2056127;86;29423;-73
2022/09/06 06:39:45;;;;;;;15.43;3.12;;;;;;;16.35;53.52;100992.02;2056817;86;27771;-72
2022/09/06 06:42:46;;;;;;;5.47;2.52;;;;;;;16.88;53.19;100983.27;2056808;86;29901;-70
2022/09/06 06:45:49;;;;;;;7.70;2.70;;;;;;;16.88;53.19;100983.27;2055908;86;31043;-68
2022/09/06 06:48:51;;;;;;;11.22;3.20;;;;;;;17.20;52.61;100984.36;2052073;86;32991;-70
2022/09/06 06:51:52;;;;;;;7.72;2.95;;;;;;;17.40;52.19;100986.23;2054991;86;30081;-70
2022/09/06 06:54:54;;;;;;;5.92;2.50;;;;;;;17.63;51.86;100986.02;2055883;86;27736;-70
2022/09/06 06:58:01;;;;;;;7.37;3.08;;;;;;;17.73;51.37;100980.83;2056964;86;29406;-70
2022/09/06 07:01:02;;;;;;;4.03;2.70;;;;;;;17.71;50.92;100988.20;2056953;86;31051;-72
2022/09/06 07:04:05;;;;;;;6.35;2.60;;;;;;;17.61;50.60;100994.27;2056724;86;33410;-66
2022/09/06 07:07:07;;;;;;;6.53;3.12;;;;;;;17.47;50.09;100980.76;2056935;86;29333;-71
2022/09/06 07:10:09;;;;;;;7.50;2.65;;;;;;;17.34;50.41;100979.86;2056789;86;27652;-72
2022/09/06 07:13:12;;;;;;;10.48;2.72;;;;;;;17.21;50.46;100981.19;2056435;86;29288;-69
2022/09/06 07:16:21;;;;;;;4.03;2.87;;;;;;;17.03;50.39;100982.80;2030490;86;31106;-69
2022/09/06 07:19:24;;;;;;;11.88;3.35;;;;;;;16.89;50.61;100990.89;2064468;86;34336;-70
2022/09/06 07:22:26;;;;;;;8.03;2.42;;;;;;;16.79;50.90;101000.12;2064560;86;30670;-69
2022/09/06 07:25:28;;;;;;;8.23;2.92;;;;;;;16.74;51.41;100996.33;2030128;87;27743;-70
2022/09/06 07:28:30;;;;;;;5.72;2.70;;;;;;;16.81;51.37;100996.80;2064580;86;29363;-72
2022/09/06 07:31:32;;;;;;;8.55;2.87;;;;;;;16.78;51.22;100997.88;2029755;87;32110;-68
2022/09/06 07:34:36;;;;;;;9.18;3.40;;;;;;;16.76;51.17;100996.25;2064784;86;32743;-71
2022/09/06 07:37:37;;;;;;;7.42;3.98;;;;;;;16.74;51.24;100997.69;2064380;86;30641;-73
2022/09/06 07:40:39;;;;;;;7.58;3.70;;;;;;;16.76;51.53;100997.11;2062067;86;27747;-72
2022/09/06 07:43:41;;;;;;;5.72;3.20;;;;;;;16.79;51.72;101006.38;2029854;87;29082;-72
2022/09/06 07:46:43;;;;;;;8.38;2.75;;;;;;;16.67;51.55;100990.45;2038768;87;32192;-73
2022/09/06 07:49:44;;;;;;;4.17;3.10;;;;;;;16.67;51.55;100990.45;2073032;85;33659;-72
2022/09/06 07:52:46;;;;;;;8.20;3.30;;;;;;;16.81;51.24;101012.57;2064583;86;29353;-70
2022/09/06 07:55:48;;;;;;;5.53;3.47;;;;;;;16.84;51.21;101019.14;2064710;86;27771;-70
2022/09/06 07:58:52;;;;;;;6.47;3.60;;;;;;;16.93;51.42;101016.33;2064342;86;29455;-70
2022/09/06 08:01:53;;;;;;;9.27;2.93;;;;;;;17.03;51.69;101018.45;2064753;86;31040;-71
2022/09/06 08:04:55;;;;;;;8.08;3.05;;;;;;;17.12;51.27;101017.37;2064504;86;34315;-72
2022/09/06 08:07:57;;;;;;;6.62;3.52;;;;;;;17.21;51.52;101010.98;2063406;86;29370;-69
2022/09/06 08:10:59;;;;;;;5.53;3.05;;;;;;;17.36;51.21;101010.42;1994839;88;27796;-69
2022/09/06 08:14:04;;;;;;;6.75;2.62;;;;;;;17.36;50.79;101011.30;2064360;86;29339;-71
2022/09/06 08:17:05;;;;;;;6.92;3.15;;;;;;;17.42;50.83;101004.60;2035749;87;31092;-72
2022/09/06 08:20:08;;;;;;;6.22;3.33;;;;;;;17.52;50.74;100998.94;2072976;85;34189;-71
2022/09/06 08:23:11;;;;;;;8.73;3.27;;;;;;;17.65;50.61;100991.31;2073689;85;29993;-72
2022/09/06 08:26:15;;;;;;;6.65;3.02;;;;;;;17.73;50.90;100996.59;2073701;85;27728;-76
2022/09/06 08:29:18;;;;;;;7.83;2.70;;;;;;;17.82;49.98;100992.87;2073305;85;29515;-73
2022/09/06 08:32:20;;;;;;;4.87;3.37;;;;;;;17.86;50.49;100983.06;2073766;85;31062;-73
2022/09/06 08:35:21;;;;;;;6.17;2.90;;;;;;;17.92;50.15;100980.41;2073847;85;34379;-70
2022/09/06 08:38:23;;;;;;;4.92;2.52;;;;;;;17.91;50.19;100972.78;2073519;85;29763;-70
2022/09/06 08:41:35;;;;;;;5.62;2.30;;;;;;;18.00;50.15;100969.06;2073735;85;27787;-73
2022/09/06 08:44:52;;;;;;;6.17;3.08;;;;;;;18.21;49.87;100966.20;2073557;85;28644;-72
2022/09/06 08:47:56;;;;;;;4.15;2.47;;;;;;;18.35;49.99;100966.58;2073407;85;32004;-74
2022/09/06 08:51:26;;;;;;;4.90;2.80;;;;;;;18.52;49.83;100965.84;2048644;85;33135;-71
2022/09/06 08:54:39;;;;;;;7.40;3.12;;;;;;;18.65;49.75;100973.93;2073840;85;29099;-69
2022/09/06 08:58:04;;;;;;;6.15;3.27;;;;;;;18.76;49.65;100966.36;2060285;85;27694;-71
2022/09/06 09:01:21;;;;;;;7.50;2.95;;;;;;;18.77;49.06;100967.62;2045956;86;29414;-68
2022/09/06 09:04:24;;;;;;;6.80;3.22;;;;;;;18.91;49.22;100965.73;2050033;86;31053;-70
2022/09/06 09:07:44;;;;;;;6.62;2.95;;;;;;;19.06;48.84;100963.26;2050083;86;34147;-68
2022/09/06 09:10:49;;;;;;;4.85;3.27;;;;;;;19.19;48.11;100959.13;2039835;87;29383;-67
2022/09/06 09:14:05;;;;;;;5.97;2.95;;;;;;;19.42;48.63;100955.14;2002359;88;28219;-72
2022/09/06 09:17:21;;;;;;;4.40;2.90;;;;;;;19.61;47.80;100955.08;2031001;87;29910;-67
2022/09/06 09:20:22;;;;;;;7.90;3.27;;;;;;;19.74;47.54;100959.45;2050260;84;31073;-71
2022/09/06 09:23:24;;;;;;;7.15;3.17;;;;;;;19.97;48.16;100957.30;2026911;87;33074;-76
2022/09/06 09:26:31;;;;;;;5.20;2.95;;;;;;;20.24;47.43;100952.88;2061823;86;29937;-66
2022/09/06 09:29:56;;;;;;;5.10;3.10;;;;;;;20.46;47.42;100957.93;2027537;87;27624;-73
2022/09/06 09:32:58;;;;;;;5.60;3.12;;;;;;;20.65;47.27;100961.40;2062279;86;28754;-65
2022/09/06 09:36:03;;;;;;;5.53;3.02;;;;;;;20.90;46.39;100940.33;2061798;86;32264;-66
2022/09/06 09:39:11;;;;;;;9.83;3.70;;;;;;;21.06;45.75;100949.45;2065400;85;32225;-67
2022/09/06 09:42:27;;;;;;;4.70;2.98;;;;;;;21.09;46.00;100939.16;2064753;86;29863;-69
2022/09/06 09:45:30;;;;;;;9.08;3.20;;;;;;;21.23;46.37;100939.84;2027517;87;27671;-68
2022/09/06 09:48:31;;;;;;;5.35;3.67;;;;;;;21.34;45.70;100949.36;2062284;86;28095;-67
2022/09/06 09:51:43;;;;;;;7.12;2.98;;;;;;;21.45;45.51;100947.56;2064259;86;31635;-69
2022/09/06 09:54:46;;;;;;;7.00;2.98;;;;;;;21.54;45.24;100942.67;2036258;87;32977;-75
2022/09/06 09:57:49;;;;;;;4.05;3.00;;;;;;;21.59;44.58;100942.30;2043392;86;29406;-74
2022/09/06 10:01:17;;;;;;;6.37;3.17;;;;;;;21.60;45.37;100942.64;2067656;86;27653;-68
2022/09/06 10:04:29;;;;;;;5.75;3.83;;;;;;;21.78;44.57;100945.68;2067247;84;29912;-71
2022/09/06 10:07:32;;;;;;;5.53;3.72;;;;;;;21.75;45.02;100937.76;2065814;84;31118;-74
2022/09/06 10:10:41;;;;;;;5.90;3.02;;;;;;;21.83;45.40;100932.00;2027570;86;33772;-72
2022/09/06 10:13:43;;;;;;;4.47;3.47;;;;;;;22.03;45.08;100933.48;2019847;86;29495;-73
2022/09/06 10:16:44;;;;;;;5.05;2.67;;;;;;;22.16;44.63;100926.45;2025341;86;27718;-71
2022/09/06 10:19:47;;;;;;;6.05;2.92;;;;;;;22.33;44.65;100923.55;2025280;86;28602;-72
2022/09/06 10:22:57;;;;;;;4.53;3.08;;;;;;;22.43;44.27;100928.57;2024313;87;32105;-72
2022/09/06 10:26:04;;;;;;;6.20;3.10;;;;;;;22.39;43.92;100928.48;2025043;86;32957;-66
2022/09/06 10:29:10;;;;;;;5.03;3.87;;;;;;;22.40;44.09;100921.14;2024480;86;30462;-66
2022/09/06 10:32:27;;;;;;;6.55;2.90;;;;;;;22.44;43.15;100922.63;2024701;86;27790;-64
2022/09/06 10:35:38;;;;;;;3.85;2.70;;;;;;;22.40;43.00;100917.92;2024267;87;29946;-67
2022/09/06 10:38:54;;;;;;;6.25;2.70;;;;;;;22.48;43.14;100911.80;2020829;87;31417;-67
2022/09/06 10:42:22;;;;;;;7.78;2.67;;;;;;;22.64;42.47;100906.30;2024872;87;33375;-63
2022/09/06 10:46:02;;;;;;;4.67;2.45;;;;;;;22.56;41.32;100898.81;2024182;87;30516;-65
2022/09/06 10:49:04;;;;;;;3.90;2.37;;;;;;;22.40;41.89;100894.72;2031765;86;27738;-66
2022/09/06 10:52:08;;;;;;;4.85;2.40;;;;;;;22.34;42.04;100891.68;2006591;87;28842;-66
2022/09/06 10:55:16;;;;;;;;;;;;;;;22.38;41.52;100883.06;2032754;86;31090;-68
2022/09/06 10:58:23;;;;;;;5.17;2.10;;;;;;;22.34;41.25;100880.25;2027307;87;33807;-65
2022/09/06 11:01:33;;;;;;;6.20;2.22;;;;;;;22.29;41.58;100871.11;2032874;87;30103;-66
2022/09/06 11:08:03;;;;;;;7.67;2.50;;;;;;;22.25;40.86;100863.34;1927158;90;28018;-66
2022/09/06 11:11:19;;;;;;;5.95;2.30;;;;;;;22.19;40.90;100862.02;1881663;93;31488;-66
2022/09/06 11:14:23;;;;;;;4.97;2.10;;;;;;;22.18;40.95;100849.36;1876210;94;33233;-67
2022/09/06 11:17:30;;;;;;;4.80;2.25;;;;;;;22.24;41.37;100845.24;1906978;91;29670;-65
2022/09/06 11:20:45;;;;;;;2.33;2.08;;;;;;;22.14;40.33;100840.59;1939940;90;27791;-66
2022/09/06 11:24:12;;;;;;;5.85;2.25;;;;;;;22.01;40.36;100832.65;1933186;90;30094;-64
2022/09/06 11:27:31;;;;;;;3.27;2.40;;;;;;;21.92;40.70;100820.36;1938121;90;31729;-62
2022/09/06 11:30:33;;;;;;;7.60;2.27;;;;;;;21.90;40.15;100834.13;1937408;90;33049;-70
2022/09/06 11:33:38;;;;;;;9.38;2.00;;;;;;;21.87;40.65;100829.45;1934716;91;30563;-69
2022/09/06 11:37:07;;;;;;;5.42;2.12;;;;;;;21.95;40.67;100837.80;1936424;91;27905;-69
2022/09/06 11:40:18;;;;;;;3.15;1.85;;;;;;;22.08;40.63;100841.66;1908432;91;29607;-68
2022/09/06 11:43:47;;;;;;;3.05;2.00;;;;;;;22.24;41.34;100837.91;1908510;93;31248;-67
2022/09/06 11:46:56;;;;;;;4.05;2.50;;;;;;;22.36;40.53;100836.41;1908373;92;34187;-62
2022/09/06 11:49:57;;;;;;;8.33;2.22;;;;;;;22.40;41.21;100833.29;1908736;93;29436;-69
2022/09/06 11:53:18;;;;;;;5.80;2.02;;;;;;;22.48;40.61;100836.72;1908432;93;27814;-67
2022/09/06 11:56:36;;;;;;;4.40;2.35;;;;;;;22.55;40.70;100829.66;1908319;93;28665;-69
2022/09/06 11:59:52;;;;;;;4.05;2.12;;;;;;;22.74;40.91;100831.58;1908700;93;30745;-69
2022/09/06 12:02:54;;;;;;;4.30;2.70;;;;;;;22.85;40.06;100833.80;1908612;92;33177;-65
2022/09/06 12:06:18;;;;;;;6.03;2.65;;;;;;;22.88;40.52;100831.62;1936311;91;30786;-69
2022/09/06 12:09:41;;;;;;;3.63;2.40;;;;;;;22.99;40.56;100823.80;1969702;90;27754;-69
2022/09/06 12:12:47;;;;;;;4.20;2.47;;;;;;;23.09;40.05;100829.25;1941446;91;29161;-69
2022/09/06 12:15:56;;;;;;;6.28;2.45;;;;;;;23.18;40.46;100826.16;1937187;91;31354;-69
2022/09/06 12:18:58;;;;;;;3.95;2.22;;;;;;;23.32;41.16;100828.98;1919545;92;32609;-68
2022/09/06 12:22:00;;;;;;;4.40;2.33;;;;;;;23.46;41.13;100821.68;1919550;92;29196;-70
2022/09/06 12:25:19;;;;;;;2.65;2.27;;;;;;;23.61;40.89;100816.58;1919548;92;27774;-70
2022/09/06 12:28:28;;;;;;;4.25;2.10;;;;;;;23.64;39.88;100807.23;1861119;95;30025;-69
2022/09/06 12:31:39;;;;;;;3.83;2.17;;;;;;;23.55;39.61;100802.16;1861046;95;31230;-68
2022/09/06 12:34:42;;;;;;;5.72;2.55;;;;;;;23.61;39.74;100802.91;1860669;95;33428;-69
2022/09/06 12:37:57;;;;;;;4.95;2.08;;;;;;;23.62;39.36;100801.05;1856432;95;30476;-69
2022/09/06 12:41:00;;;;;;;6.50;2.70;;;;;;;23.56;38.89;100798.90;1844258;96;27739;-69
2022/09/06 12:44:04;;;;;;;3.83;2.92;;;;;;;23.52;39.00;100798.34;1849250;94;30276;-69
2022/09/06 12:47:30;;;;;;;5.25;2.90;;;;;;;23.50;38.24;100799.84;1883549;94;32290;-69
2022/09/06 12:50:39;;;;;;;5.20;2.25;;;;;;;23.44;37.80;100800.94;1883798;94;33052;-70
2022/09/06 12:54:05;;;;;;;2.83;2.20;;;;;;;23.36;37.78;100796.21;1906312;93;29505;-69
2022/09/06 12:57:31;;;;;;;3.05;2.50;;;;;;;23.37;38.44;100793.84;1869884;95;27783;-71
2022/09/06 13:00:58;;;;;;;5.65;2.50;;;;;;;23.49;38.28;100789.06;1905926;93;28790;-69
2022/09/06 13:04:08;;;;;;;5.70;2.80;;;;;;;23.60;38.53;100789.39;1916619;90;31132;-68
2022/09/06 13:07:17;;;;;;;3.33;2.37;;;;;;;23.76;38.61;100785.51;1959499;90;33392;-70
2022/09/06 13:10:24;;;;;;;4.03;2.72;;;;;;;24.02;39.38;100775.25;1998463;89;29883;-70
2022/09/06 13:13:26;;;;;;;4.97;2.80;;;;;;;24.24;39.02;100776.69;2026002;87;27708;-68
2022/09/06 13:16:36;;;;;;;4.33;2.45;;;;;;;24.43;38.82;100771.61;2033221;86;29110;-70
2022/09/06 13:19:41;;;;;;;6.17;2.50;;;;;;;24.56;38.52;100765.75;2046930;86;31734;-68
2022/09/06 13:22:46;;;;;;;9.58;2.65;;;;;;;24.64;37.37;100754.50;2048123;86;33825;-70
2022/09/06 13:25:51;;;;;;;3.80;2.08;;;;;;;24.60;37.08;100758.56;2048021;86;29478;-67
2022/09/06 13:28:52;;;;;;;;;;;;;;;24.43;36.73;100751.06;2051005;86;27664;-70
2022/09/06 13:31:57;;;;;;;14.43;6.90;;;;;;;24.31;36.66;100747.33;2048126;86;28697;-70
2022/09/06 13:35:11;;;;;;;3.83;2.87;;;;;;;24.17;36.99;100747.34;2048406;86;31840;-70
2022/09/06 13:38:46;;;;;;;5.42;3.12;;;;;;;24.01;36.67;100733.84;2030996;86;33010;-70
2022/09/06 13:42:02;;;;;;;7.10;2.60;;;;;;;23.90;37.30;100728.55;2048289;86;29334;-69
2022/09/06 13:45:24;;;;;;;3.98;2.20;;;;;;;23.73;36.65;100723.41;2048400;86;27714;-70
2022/09/06 13:48:26;;;;;;;4.22;2.50;;;;;;;23.50;36.99;100727.37;2047928;86;28694;-68
2022/09/06 13:51:28;;;;;;;4.58;1.92;;;;;;;23.41;37.49;100724.70;2047994;86;31615;-69
2022/09/06 13:54:31;;;;;;;2.80;2.37;;;;;;;23.38;37.79;100724.48;2028454;86;33796;-69
2022/09/06 13:57:33;;;;;;;4.03;2.25;;;;;;;23.36;37.77;100731.96;2059920;86;30131;-67
2022/09/06 14:00:35;;;;;;;3.85;2.50;;;;;;;23.22;37.60;100729.22;2060039;86;27537;-66
2022/09/06 14:03:40;;;;;;;5.35;2.17;;;;;;;23.11;37.46;100730.22;2059658;86;29350;-65
2022/09/06 14:06:42;;;;;;;5.55;2.30;;;;;;;23.07;37.33;100732.88;2060022;86;31039;-67
2022/09/06 14:09:52;;;;;;;3.70;2.02;;;;;;;23.02;37.75;100729.72;2059503;86;34239;-67
2022/09/06 14:13:07;;;;;;;3.52;1.87;;;;;;;22.89;37.69;100730.05;2059831;86;30076;-68
2022/09/06 14:16:12;;;;;;;4.65;2.50;;;;;;;22.81;37.64;100731.27;2059616;86;27713;-66
2022/09/06 14:19:14;;;;;;;4.30;2.47;;;;;;;22.76;38.00;100716.69;2059664;86;29293;-68
2022/09/06 14:22:16;;;;;;;3.52;2.35;;;;;;;22.74;37.75;100714.61;2059410;86;31061;-66
2022/09/06 14:25:18;;;;;;;3.87;2.10;;;;;;;22.67;37.46;100711.59;2059513;86;35108;-66
2022/09/06 14:28:20;;;;;;;4.47;1.90;;;;;;;22.60;37.71;100707.22;2059505;86;30640;-63
2022/09/06 14:31:25;;;;;;;3.52;2.15;;;;;;;22.50;37.61;100711.84;2060005;86;27743;-67
2022/09/06 14:34:28;;;;;;;6.53;2.17;;;;;;;22.43;37.75;100698.39;2059824;86;29492;-68